Chaledzela, Zambia

11:01 AM CAT on May 27, 2017 (GMT +0200)
Kenneth Kaunda Intl | | Change Station

Elev 1768 ft 15.33 °S, 28.46 °E | Updated 2 hours ago

Clear
Clear
75 °F
Feels Like 75 °F
N
2
Wind Variable Wind from Variable

Today
High -- | Low -- °F
--% Chance of Precip.
Yesterday
High -- | Low -- °F
Precip. -- in
Pressure 30.30 in
Visibility -9999.0 miles
Clouds
Dew Point 59 °F
Humidity 57%
Rainfall 0.00 in
Snow Depth Not available.
6:23 AM 5:40 PM
Waxing Crescent, 4% visible
METAR FLKK 270700Z VRB02KT CAVOK 24/15 Q1026
Pressure 30.30 in
Visibility -9999.0 miles
Clouds
Dew Point 59 °F
Humidity 57%
Rainfall 0.00 in
Snow Depth Not available.
6:23 AM 5:40 PM
Waxing Crescent, 4% visible
METAR FLKK 270700Z VRB02KT CAVOK 24/15 Q1026

Get Severe Weather Alerts

Thanks for signing up!

Be on the lookout for a verification email in your inbox.

You'll start receiving the daily forecast at 6 AM.

×

10-Day Weather Forecast

No radar image for this location.
×

Almanac

Astronomy

May. 27, 2017 Rise Set
Actual Time
Civil Twilight
Nautical Twilight
Astronomical Twilight
Moon
Length of Visible Light
Length of Day
Tomorrow will be .
, % of the Moon is Illuminated

Today's Extremes

Country Highs Country Lows

Community

WunderPhotos

Category 6

Welcome to Category 6. This is the collective home for Weather Underground's featured writeups by Dr. Jeff Masters (right), Bob Henson (left), Chris Burt, and other regular contributors.

Nearby

Air Quality

  Air Quality AQ Index Pollutant
Not available.

Snow Depth

Station Depth Elevation

Earthquake Activity

City Distance Mag. Time & Date
Minimum magnitude displayed is 2.5.

Coastal Water Temperatures

Place Temperature

Stations

Nearby Weather Stations

Station Location Temp. Windchill Dew Point Humidity Wind Precip. Elev Updated Type